Gakona, AK

12:43 AM AKDT on August 21, 2017 (GMT -0800)
Northway | | Change Station

Elev 1716 ft 62.96 °N, 141.93 °W | Updated 50 minutes ago

Mostly Cloudy
Mostly Cloudy
46 °F
Feels Like 46 °F
N
0
Wind Variable Wind from North

Today
High -- | Low -- °F
--% Chance of Precip.
Yesterday
High -- | Low -- °F
Precip. -- in
Pressure 29.70 in
Visibility 10.0 miles
Clouds Few 8000 ft
Mostly Cloudy 14000 ft
Mostly Cloudy 15000 ft
Dew Point 46 °F
Humidity 100%
Rainfall 0.00 in
Snow Depth Not available.
5:51 AM 9:16 PM
Waning Crescent, 0% visible
METAR PAOR 210753Z 00000KT 10SM FEW080 BKN140 BKN150 08/08 A2968 RMK AO2 SLP057 T00780078
Pressure 29.70 in
Visibility 10.0 miles
Clouds Few 8000 ft
Mostly Cloudy 14000 ft
Mostly Cloudy 15000 ft
Dew Point 46 °F
Humidity 100%
Rainfall 0.00 in
Snow Depth Not available.
5:51 AM 9:16 PM
Waning Crescent, 0% visible
METAR PAOR 210753Z 00000KT 10SM FEW080 BKN140 BKN150 08/08 A2968 RMK AO2 SLP057 T00780078

Get Severe Weather Alerts

Thanks for signing up!

Be on the lookout for a verification email in your inbox.

You'll start receiving the daily forecast at 6 AM.

×

10-Day Weather Forecast

Almanac

Astronomy

Aug. 21, 2017 Rise Set
Actual Time
Civil Twilight
Nautical Twilight
Astronomical Twilight
Moon
Length of Visible Light
Length of Day
Tomorrow will be .
, % of the Moon is Illuminated

Today's Extremes

State Highs State Lows

Community

WunderPhotos

Category 6

Welcome to Category 6. This is the collective home for Weather Underground's featured writeups by Dr. Jeff Masters (right), Bob Henson (left), Chris Burt, and other regular contributors.

Nearby

Air Quality

  Air Quality AQ Index Pollutant
Not available.

Snow Depth

Station Depth Elevation

Earthquake Activity

City Distance Mag. Time & Date
Minimum magnitude displayed is 2.5.

Coastal Water Temperatures

Place Temperature

Stations

Nearby Weather Stations

Station Location Temp. Windchill Dew Point Humidity Wind Precip. Elev Updated Type
                   

Watches & Warnings

There are currently no watches in effect.